createdAt,value
2023-08-17T00:01:13.723Z,18.98
2023-08-17T00:03:17.113Z,19.01
2023-08-17T00:05:20.801Z,19.03
2023-08-17T00:07:24.607Z,18.96
2023-08-17T00:09:31.254Z,19.00
2023-08-17T00:11:35.774Z,18.89
2023-08-17T00:13:40.589Z,18.89
2023-08-17T00:15:46.319Z,18.87
2023-08-17T00:17:49.839Z,18.91
2023-08-17T00:19:53.198Z,18.92
2023-08-17T00:21:57.124Z,18.79
2023-08-17T00:24:00.715Z,18.72
2023-08-17T00:26:04.103Z,18.78
2023-08-17T00:28:07.765Z,18.77
2023-08-17T00:30:13.490Z,18.72
2023-08-17T00:32:18.585Z,18.73
2023-08-17T00:34:22.123Z,18.75
2023-08-17T00:36:25.501Z,18.64
2023-08-17T00:38:27.910Z,18.78
2023-08-17T00:40:31.338Z,18.64
2023-08-17T00:42:34.712Z,18.71
2023-08-17T00:44:38.065Z,18.92
2023-08-17T00:46:42.920Z,18.77
2023-08-17T00:48:46.440Z,18.93
2023-08-17T00:50:51.099Z,18.96
2023-08-17T00:52:55.902Z,18.64
2023-08-17T00:54:59.710Z,18.67
2023-08-17T00:57:07.468Z,18.67
2023-08-17T00:59:10.940Z,18.63
2023-08-17T01:01:14.453Z,18.83
2023-08-17T01:03:20.834Z,18.62
2023-08-17T01:05:25.464Z,18.52
2023-08-17T01:07:29.254Z,18.31
2023-08-17T01:09:33.055Z,18.21
2023-08-17T01:11:42.002Z,18.11
2023-08-17T01:13:51.525Z,18.33
2023-08-17T01:16:00.029Z,18.21
2023-08-17T01:18:08.041Z,18.40
2023-08-17T01:20:15.876Z,18.26
2023-08-17T01:22:23.067Z,18.16
2023-08-17T01:24:27.892Z,18.25
2023-08-17T01:26:31.369Z,18.28
2023-08-17T01:28:34.713Z,18.41
2023-08-17T01:30:44.755Z,18.31
2023-08-17T01:32:52.955Z,18.57
2023-08-17T01:35:03.038Z,18.72
2023-08-17T01:37:09.694Z,18.57
2023-08-17T01:39:12.642Z,18.80
2023-08-17T01:41:17.795Z,18.82
2023-08-17T01:43:22.625Z,18.82
2023-08-17T01:45:26.487Z,18.86
2023-08-17T01:47:30.201Z,18.94
2023-08-17T01:49:33.606Z,18.84
2023-08-17T01:51:35.968Z,18.77
2023-08-17T01:53:39.441Z,18.83
2023-08-17T01:55:42.873Z,18.92
2023-08-17T01:57:46.590Z,18.93
2023-08-17T01:59:49.968Z,18.68
2023-08-17T02:01:53.362Z,18.74
2023-08-17T02:03:56.770Z,18.64
2023-08-17T02:06:00.429Z,18.72
2023-08-17T02:08:03.862Z,18.69
2023-08-17T02:10:09.115Z,18.59
2023-08-17T02:12:12.487Z,18.57
2023-08-17T02:14:17.803Z,18.85
2023-08-17T02:16:21.158Z,18.75
2023-08-17T02:18:24.602Z,18.89
2023-08-17T02:20:27.955Z,19.03
2023-08-17T02:22:31.392Z,18.76
2023-08-17T02:24:34.783Z,18.94
2023-08-17T02:26:39.397Z,18.75
2023-08-17T02:28:42.780Z,18.73
2023-08-17T02:30:48.878Z,18.72
2023-08-17T02:32:52.228Z,18.80
2023-08-17T02:34:55.735Z,18.66
2023-08-17T02:36:59.317Z,18.46
2023-08-17T02:39:04.348Z,18.73
2023-08-17T02:41:07.761Z,18.76
2023-08-17T02:43:11.171Z,18.74
2023-08-17T02:45:13.669Z,18.94
2023-08-17T02:47:18.379Z,18.81
2023-08-17T02:49:22.190Z,18.88
2023-08-17T02:51:26.685Z,19.05
2023-08-17T02:53:30.141Z,18.89
2023-08-17T02:55:33.618Z,19.08
2023-08-17T02:57:36.093Z,19.11
2023-08-17T02:59:39.426Z,19.15
2023-08-17T03:01:42.822Z,19.17
2023-08-17T03:03:47.596Z,18.69
2023-08-17T03:05:51.127Z,18.65
2023-08-17T03:07:54.448Z,18.65
2023-08-17T03:09:57.800Z,18.88
2023-08-17T03:12:01.143Z,18.63
2023-08-17T03:14:04.935Z,18.61
2023-08-17T03:16:08.507Z,18.53
2023-08-17T03:18:13.102Z,18.55
2023-08-17T03:20:17.119Z,18.49
2023-08-17T03:22:20.550Z,18.46
2023-08-17T03:24:23.552Z,18.44
2023-08-17T03:26:28.675Z,18.60
2023-08-17T03:28:32.225Z,18.43
2023-08-17T03:30:36.549Z,18.35
2023-08-17T03:32:40.182Z,18.33
2023-08-17T03:34:43.904Z,18.24
2023-08-17T03:36:49.472Z,18.22
2023-08-17T03:38:53.375Z,18.30
2023-08-17T03:40:56.718Z,18.21
2023-08-17T03:43:01.076Z,18.42
2023-08-17T03:45:05.426Z,18.20
2023-08-17T03:47:10.406Z,18.12
2023-08-17T03:49:13.891Z,18.19
2023-08-17T03:51:17.898Z,18.15
2023-08-17T03:53:23.307Z,18.20
2023-08-17T03:55:27.308Z,18.14
2023-08-17T03:57:33.144Z,18.11
2023-08-17T03:59:37.774Z,17.91
2023-08-17T04:01:41.310Z,18.04
2023-08-17T04:03:44.583Z,18.08
2023-08-17T04:05:48.087Z,18.09
2023-08-17T04:07:51.439Z,18.03
2023-08-17T04:09:56.125Z,17.97
2023-08-17T04:11:59.485Z,17.91
2023-08-17T04:14:03.096Z,17.83
2023-08-17T04:16:11.659Z,17.82
2023-08-17T04:18:21.312Z,17.79
2023-08-17T04:20:28.866Z,17.91
2023-08-17T04:22:32.557Z,17.90
2023-08-17T04:24:36.075Z,17.80
2023-08-17T04:26:41.020Z,17.78
2023-08-17T04:28:44.392Z,17.81
2023-08-17T04:30:48.471Z,17.77
2023-08-17T04:32:53.805Z,17.74
2023-08-17T04:34:57.726Z,17.75
2023-08-17T04:37:01.102Z,17.69
2023-08-17T04:39:05.385Z,17.79
2023-08-17T04:41:09.489Z,18.11
2023-08-17T04:43:15.506Z,17.88
2023-08-17T04:45:18.917Z,18.05
2023-08-17T04:47:24.012Z,18.02
2023-08-17T04:49:28.234Z,18.17
2023-08-17T04:51:31.245Z,18.49
2023-08-17T04:53:34.900Z,18.58
2023-08-17T04:55:38.365Z,18.32
2023-08-17T04:57:41.733Z,18.45
2023-08-17T04:59:48.201Z,18.29
2023-08-17T05:01:55.404Z,18.24
2023-08-17T05:03:58.862Z,18.44
2023-08-17T05:06:03.132Z,18.24
2023-08-17T05:08:06.990Z,18.42
2023-08-17T05:10:11.303Z,18.43
2023-08-17T05:12:16.353Z,18.48
2023-08-17T05:14:18.786Z,18.56
2023-08-17T05:16:23.611Z,18.28
2023-08-17T05:18:27.251Z,18.14
2023-08-17T05:20:30.614Z,18.20
2023-08-17T05:22:33.070Z,18.28
2023-08-17T05:24:37.171Z,18.33
2023-08-17T05:26:43.017Z,18.10
2023-08-17T05:28:46.727Z,18.30
2023-08-17T05:30:51.387Z,18.58
2023-08-17T05:32:55.492Z,18.56
2023-08-17T05:34:59.103Z,18.39
2023-08-17T05:37:03.055Z,18.64
2023-08-17T05:39:06.739Z,18.63
2023-08-17T05:41:10.769Z,18.73
2023-08-17T05:43:14.141Z,18.56
2023-08-17T05:45:17.670Z,18.48
2023-08-17T05:47:21.318Z,18.74
2023-08-17T05:49:26.235Z,18.80
2023-08-17T05:51:29.672Z,18.52
2023-08-17T05:53:33.072Z,18.43
2023-08-17T05:55:36.486Z,18.23
2023-08-17T05:57:39.882Z,18.26
2023-08-17T05:59:43.264Z,18.24
2023-08-17T06:01:46.679Z,18.48
2023-08-17T06:03:50.850Z,18.52
2023-08-17T06:05:56.181Z,18.66
2023-08-17T06:08:00.199Z,19.40
2023-08-17T06:10:07.132Z,20.10
2023-08-17T06:12:10.604Z,19.85
2023-08-17T06:14:14.318Z,19.35
2023-08-17T06:16:17.936Z,19.49
2023-08-17T06:18:22.525Z,19.34
2023-08-17T06:20:25.989Z,19.79
2023-08-17T06:22:30.685Z,19.78
2023-08-17T06:24:34.730Z,19.90
2023-08-17T06:26:38.056Z,19.65
2023-08-17T06:28:41.488Z,19.32
2023-08-17T06:30:44.944Z,19.61
2023-08-17T06:32:48.478Z,19.26
2023-08-17T06:34:51.967Z,19.85
2023-08-17T06:37:03.634Z,19.57
2023-08-17T06:39:09.858Z,19.92
2023-08-17T06:41:13.377Z,19.35
2023-08-17T06:43:18.968Z,19.35
2023-08-17T06:45:23.604Z,19.65
2023-08-17T06:47:27.583Z,19.73
2023-08-17T06:49:33.369Z,19.49
2023-08-17T06:51:36.837Z,19.31
2023-08-17T06:53:40.307Z,18.58
2023-08-17T06:55:45.109Z,18.81
2023-08-17T06:57:50.861Z,19.06
2023-08-17T06:59:54.185Z,19.10
2023-08-17T07:01:58.412Z,19.38
2023-08-17T07:04:01.839Z,19.19
2023-08-17T07:06:05.330Z,19.44
2023-08-17T07:08:09.117Z,19.14
2023-08-17T07:10:13.113Z,19.30
2023-08-17T07:12:17.933Z,19.68
2023-08-17T07:14:22.974Z,19.30
2023-08-17T07:16:26.667Z,19.36
2023-08-17T07:18:30.019Z,19.12
2023-08-17T07:20:33.385Z,19.41
2023-08-17T07:22:36.055Z,19.27
2023-08-17T07:24:39.423Z,19.35
2023-08-17T07:26:42.865Z,19.65
2023-08-17T07:28:47.544Z,19.42
2023-08-17T07:30:50.009Z,19.28
2023-08-17T07:32:53.366Z,19.28
2023-08-17T07:34:56.733Z,19.10
2023-08-17T07:37:00.223Z,19.14
2023-08-17T07:39:03.582Z,19.05
2023-08-17T07:41:06.988Z,19.01
2023-08-17T07:43:10.606Z,18.91
2023-08-17T07:45:16.046Z,18.97
2023-08-17T07:47:20.567Z,18.87
2023-08-17T07:51:48.740Z,18.96
2023-08-17T07:53:52.171Z,18.96
2023-08-17T07:55:56.151Z,19.00
2023-08-17T07:57:59.812Z,19.06
2023-08-17T08:00:03.244Z,19.12
2023-08-17T08:02:13.032Z,19.18
2023-08-17T08:04:16.445Z,19.16
2023-08-17T08:06:21.518Z,19.14
2023-08-17T08:08:24.957Z,19.14
2023-08-17T08:10:29.962Z,19.29
2023-08-17T08:12:33.383Z,19.15
2023-08-17T08:14:36.840Z,19.11
2023-08-17T08:16:40.263Z,19.06
2023-08-17T08:18:45.147Z,19.14
2023-08-17T08:20:48.531Z,19.15
2023-08-17T08:22:51.937Z,19.18
2023-08-17T08:24:55.552Z,19.29
2023-08-17T08:26:58.992Z,19.29
2023-08-17T08:29:02.578Z,19.24
2023-08-17T08:31:05.541Z,19.24
2023-08-17T08:33:09.007Z,19.33
2023-08-17T08:35:13.877Z,19.60
2023-08-17T08:37:17.340Z,19.43
2023-08-17T08:39:20.814Z,19.29
2023-08-17T08:41:27.681Z,19.20
2023-08-17T08:43:31.576Z,19.27
2023-08-17T08:45:35.471Z,19.27
2023-08-17T08:47:39.346Z,19.20
2023-08-17T08:49:49.329Z,19.31
2023-08-17T08:51:54.340Z,19.26
2023-08-17T08:54:04.217Z,19.20
2023-08-17T08:56:13.543Z,19.25
2023-08-17T08:58:18.109Z,19.50
2023-08-17T09:00:22.284Z,19.33
2023-08-17T09:02:25.158Z,19.52
2023-08-17T09:04:29.268Z,19.51
2023-08-17T09:06:31.815Z,19.37
2023-08-17T09:08:36.712Z,19.39
2023-08-17T09:10:40.694Z,19.33
2023-08-17T09:14:57.379Z,19.43
2023-08-17T09:17:01.026Z,19.70
2023-08-17T09:19:04.498Z,19.85
2023-08-17T09:21:08.205Z,19.80
2023-08-17T09:23:14.175Z,19.73
2023-08-17T09:25:24.804Z,19.67
2023-08-17T09:27:28.220Z,19.69
2023-08-17T09:29:37.889Z,19.62
2023-08-17T09:31:41.820Z,19.73
2023-08-17T09:33:45.633Z,19.71
2023-08-17T09:35:49.358Z,19.83
2023-08-17T09:37:52.737Z,19.99
2023-08-17T09:39:56.497Z,19.85
2023-08-17T09:42:01.758Z,19.98
2023-08-17T09:44:05.736Z,20.27
2023-08-17T09:46:09.614Z,20.20
2023-08-17T09:48:13.184Z,20.09
2023-08-17T09:50:16.684Z,20.29
2023-08-17T09:52:20.978Z,20.17
2023-08-17T09:54:24.808Z,20.17
2023-08-17T09:56:29.747Z,19.98
2023-08-17T09:58:34.544Z,20.37
2023-08-17T10:00:38.367Z,20.35
2023-08-17T10:02:41.012Z,20.14
2023-08-17T10:04:46.570Z,20.12
2023-08-17T10:06:53.186Z,20.07
2023-08-17T10:08:59.014Z,20.22
2023-08-17T10:11:07.144Z,20.36
2023-08-17T10:13:11.645Z,20.45
2023-08-17T10:15:20.524Z,20.27
2023-08-17T10:17:29.066Z,20.28
2023-08-17T10:19:41.515Z,20.28
2023-08-17T10:21:49.704Z,20.32
2023-08-17T10:23:55.117Z,20.38
2023-08-17T10:25:59.127Z,20.54
2023-08-17T10:28:04.807Z,20.44
2023-08-17T10:30:10.093Z,20.65
2023-08-17T10:32:17.086Z,20.65
2023-08-17T10:34:21.125Z,20.49
2023-08-17T10:36:24.927Z,20.47
2023-08-17T10:38:28.403Z,20.53
2023-08-17T10:40:37.724Z,20.42
2023-08-17T10:42:41.208Z,20.20
2023-08-17T10:44:46.476Z,20.47
2023-08-17T10:46:49.879Z,20.48
2023-08-17T10:48:54.797Z,20.57
2023-08-17T10:51:03.539Z,20.70
2023-08-17T10:53:11.528Z,20.55
2023-08-17T10:55:15.040Z,20.68
2023-08-17T10:57:29.558Z,20.68
2023-08-17T10:59:33.142Z,20.89
2023-08-17T11:01:39.329Z,20.89
2023-08-17T11:03:44.693Z,20.93
2023-08-17T11:05:51.184Z,20.76
2023-08-17T11:07:54.811Z,20.68
2023-08-17T11:09:59.741Z,20.67
2023-08-17T11:12:04.694Z,20.77
2023-08-17T11:14:08.137Z,21.03
2023-08-17T11:16:17.961Z,20.94
2023-08-17T11:18:22.245Z,20.75
2023-08-17T11:20:25.333Z,20.71
2023-08-17T11:22:30.597Z,20.94
2023-08-17T11:24:34.227Z,21.02
2023-08-17T11:26:38.526Z,21.16
2023-08-17T11:28:45.688Z,21.11
2023-08-17T11:30:59.656Z,21.23
2023-08-17T11:33:03.625Z,21.33
2023-08-17T11:35:08.718Z,21.21
2023-08-17T11:37:13.736Z,21.18
2023-08-17T11:39:22.025Z,21.20
2023-08-17T11:41:26.012Z,21.35
2023-08-17T11:43:31.029Z,21.42
2023-08-17T11:45:35.105Z,21.65
2023-08-17T11:47:40.346Z,21.90
2023-08-17T11:49:44.279Z,22.03
2023-08-17T11:51:47.786Z,22.14
2023-08-17T11:53:51.239Z,22.20
2023-08-17T11:55:56.691Z,22.28
2023-08-17T11:58:00.900Z,22.21
2023-08-17T12:00:07.187Z,22.00
2023-08-17T12:02:11.361Z,22.12
2023-08-17T12:04:14.882Z,22.20
2023-08-17T12:06:18.848Z,22.17
2023-08-17T12:08:22.397Z,21.96
2023-08-17T12:10:25.825Z,21.91
2023-08-17T12:12:30.638Z,22.36
2023-08-17T12:14:34.092Z,22.52
2023-08-17T12:16:46.998Z,22.36
2023-08-17T12:18:50.797Z,22.39
2023-08-17T12:20:54.314Z,22.42
2023-08-17T12:22:59.777Z,22.01
2023-08-17T12:25:03.196Z,21.87
2023-08-17T12:27:07.989Z,21.97
2023-08-17T12:29:12.882Z,21.99
2023-08-17T12:31:16.383Z,21.99
2023-08-17T12:33:19.872Z,22.09
2023-08-17T12:35:25.451Z,22.43
2023-08-17T12:37:28.896Z,22.71
2023-08-17T12:39:32.350Z,22.71
2023-08-17T12:41:35.816Z,22.53
2023-08-17T12:43:39.722Z,22.62
2023-08-17T12:45:44.837Z,22.53
2023-08-17T12:47:48.848Z,22.60
2023-08-17T12:49:52.486Z,22.69
2023-08-17T12:51:56.082Z,22.81
2023-08-17T12:53:59.513Z,22.75
2023-08-17T12:56:03.325Z,22.69
2023-08-17T12:58:07.148Z,22.87
2023-08-17T13:00:11.537Z,22.84
2023-08-17T13:02:16.358Z,22.69
2023-08-17T13:04:19.809Z,22.55
2023-08-17T13:06:23.767Z,22.47
2023-08-17T13:08:28.176Z,22.35
2023-08-17T13:10:31.634Z,22.48
2023-08-17T13:12:35.137Z,22.39
2023-08-17T13:14:37.635Z,22.23
2023-08-17T13:16:41.157Z,22.33
2023-08-17T13:18:45.914Z,22.32
2023-08-17T13:20:49.383Z,22.38
2023-08-17T13:22:52.952Z,22.54
2023-08-17T13:24:55.457Z,22.58
2023-08-17T13:26:58.913Z,22.51
2023-08-17T13:29:02.355Z,22.54
2023-08-17T13:31:23.157Z,22.47
2023-08-17T13:33:27.748Z,22.28
2023-08-17T13:35:32.577Z,22.47
2023-08-17T13:37:36.660Z,22.46
2023-08-17T13:39:40.027Z,22.48
2023-08-17T13:41:43.901Z,22.57
2023-08-17T13:43:47.420Z,22.58
2023-08-17T13:45:50.858Z,22.60
2023-08-17T13:47:54.768Z,22.51
2023-08-17T13:49:59.549Z,22.38
2023-08-17T13:52:03.900Z,22.36
2023-08-17T13:54:07.338Z,22.41
2023-08-17T13:56:10.729Z,22.55
2023-08-17T13:58:14.152Z,22.49
2023-08-17T14:00:18.087Z,22.46
2023-08-17T14:02:22.684Z,22.64
2023-08-17T14:04:26.297Z,22.87
2023-08-17T14:06:29.679Z,22.93
2023-08-17T14:08:34.435Z,22.93
2023-08-17T14:10:40.134Z,23.01
2023-08-17T14:12:44.055Z,22.95
2023-08-17T14:14:47.574Z,22.89
2023-08-17T14:16:51.440Z,22.89
2023-08-17T14:18:55.974Z,23.00
2023-08-17T14:20:59.420Z,23.01
2023-08-17T14:23:02.879Z,22.82
2023-08-17T14:25:08.660Z,22.97
2023-08-17T14:27:12.356Z,23.09
2023-08-17T14:29:15.705Z,22.96
2023-08-17T14:31:19.506Z,22.97
2023-08-17T14:33:23.100Z,22.77
2023-08-17T14:35:26.782Z,22.81
2023-08-17T14:37:30.582Z,22.87
2023-08-17T14:39:37.644Z,22.86
2023-08-17T14:41:46.550Z,22.92
2023-08-17T14:43:50.324Z,22.85
2023-08-17T14:45:53.884Z,23.04
2023-08-17T14:47:59.016Z,23.13
2023-08-17T14:50:02.875Z,23.67
2023-08-17T14:52:07.147Z,23.73
2023-08-17T14:54:10.210Z,23.68
2023-08-17T14:56:13.626Z,24.07
2023-08-17T14:58:19.290Z,24.57
2023-08-17T15:00:22.841Z,24.61
2023-08-17T15:02:26.245Z,24.46
2023-08-17T15:04:29.634Z,24.86
2023-08-17T15:06:34.786Z,25.08
2023-08-17T15:08:38.914Z,25.02
2023-08-17T15:10:42.358Z,25.07
2023-08-17T15:12:45.880Z,25.16
2023-08-17T15:14:50.557Z,25.54
2023-08-17T15:16:53.979Z,25.70
2023-08-17T15:18:57.498Z,25.79
2023-08-17T15:21:00.930Z,25.64
2023-08-17T15:23:04.612Z,25.79
2023-08-17T15:25:08.293Z,25.90
2023-08-17T15:27:11.722Z,25.51
2023-08-17T15:29:14.145Z,25.54
2023-08-17T15:31:18.926Z,25.08
2023-08-17T15:33:22.503Z,24.93
2023-08-17T15:35:25.957Z,24.81
2023-08-17T15:37:30.358Z,25.13
2023-08-17T15:39:34.170Z,25.12
2023-08-17T15:41:37.635Z,25.07
2023-08-17T15:43:41.003Z,24.86
2023-08-17T15:45:44.478Z,24.56
2023-08-17T15:47:49.627Z,24.59
2023-08-17T15:49:53.205Z,25.09
2023-08-17T15:51:56.583Z,25.21
2023-08-17T15:53:59.968Z,24.87
2023-08-17T15:56:03.373Z,24.52
2023-08-17T15:58:07.572Z,25.10
2023-08-17T16:00:12.101Z,24.96
2023-08-17T16:02:15.494Z,25.42
2023-08-17T16:04:20.390Z,25.12
2023-08-17T16:06:23.806Z,25.07
2023-08-17T16:08:37.287Z,24.98
2023-08-17T16:10:51.369Z,25.36
2023-08-17T16:12:55.956Z,25.33
2023-08-17T16:14:59.469Z,25.11
2023-08-17T16:17:02.898Z,25.21
2023-08-17T16:19:06.296Z,25.17
2023-08-17T16:21:14.827Z,25.60
2023-08-17T16:23:22.442Z,25.97
2023-08-17T16:27:32.897Z,25.33
2023-08-17T16:29:36.324Z,25.24
2023-08-17T16:31:39.733Z,25.55
2023-08-17T16:33:46.107Z,25.45
2023-08-17T16:35:49.560Z,25.02
2023-08-17T16:37:54.321Z,24.68
2023-08-17T16:39:57.666Z,24.91
2023-08-17T16:42:01.071Z,24.68
2023-08-17T16:44:06.252Z,24.35
2023-08-17T16:48:24.195Z,24.66
2023-08-17T16:50:33.401Z,24.85
2023-08-17T16:52:39.636Z,24.52
2023-08-17T16:54:47.235Z,24.14
2023-08-17T16:56:53.915Z,24.48
2023-08-17T16:59:01.821Z,24.02
2023-08-17T17:01:13.675Z,23.75
2023-08-17T17:03:18.076Z,23.83
2023-08-17T17:05:21.738Z,23.94
2023-08-17T17:07:25.623Z,24.08
2023-08-17T17:09:29.580Z,23.90
2023-08-17T17:11:34.563Z,23.89
2023-08-17T17:13:38.525Z,23.89
2023-08-17T17:15:42.499Z,23.76
2023-08-17T17:17:47.551Z,23.68
2023-08-17T17:19:51.083Z,23.62
2023-08-17T17:21:54.451Z,23.47
2023-08-17T17:23:57.913Z,23.91
2023-08-17T17:26:08.407Z,23.58
2023-08-17T17:28:13.295Z,23.19
2023-08-17T17:30:16.732Z,23.13
2023-08-17T17:32:20.129Z,23.01
2023-08-17T17:34:23.583Z,23.21
2023-08-17T17:36:26.979Z,22.99
2023-08-17T17:38:30.435Z,22.66
2023-08-17T17:40:33.851Z,22.61
2023-08-17T17:42:37.222Z,22.89
2023-08-17T17:44:42.108Z,22.61
2023-08-17T17:46:44.665Z,22.67
2023-08-17T17:48:48.169Z,22.46
2023-08-17T17:50:51.673Z,21.91
2023-08-17T17:52:55.215Z,22.46
2023-08-17T17:54:58.603Z,22.16
2023-08-17T17:57:01.992Z,22.09
2023-08-17T17:59:04.832Z,22.09
2023-08-17T18:01:09.932Z,22.08
2023-08-17T18:03:16.008Z,22.20
2023-08-17T18:05:19.560Z,22.63
2023-08-17T18:07:22.986Z,22.40
2023-08-17T18:09:25.695Z,22.21
2023-08-17T18:11:30.225Z,22.48
2023-08-17T18:13:33.680Z,22.29
2023-08-17T18:15:38.606Z,22.20
2023-08-17T18:17:43.375Z,22.32
2023-08-17T18:19:46.783Z,22.15
2023-08-17T18:21:50.238Z,21.94
2023-08-17T18:23:53.663Z,22.12
2023-08-17T18:25:57.083Z,21.97
2023-08-17T18:28:00.802Z,21.84
2023-08-17T18:30:05.280Z,21.95
2023-08-17T18:32:08.856Z,21.72
2023-08-17T18:34:13.775Z,21.52
2023-08-17T18:36:17.749Z,21.46
2023-08-17T18:38:22.641Z,21.77
2023-08-17T18:40:26.085Z,21.84
2023-08-17T18:42:32.451Z,21.91
2023-08-17T18:44:35.813Z,21.57
2023-08-17T18:46:41.720Z,21.76
2023-08-17T18:48:45.404Z,21.58
2023-08-17T18:50:50.185Z,21.33
2023-08-17T18:52:53.584Z,21.58
2023-08-17T18:55:01.237Z,21.54
2023-08-17T18:57:04.697Z,21.20
2023-08-17T18:59:08.069Z,21.38
2023-08-17T19:01:11.456Z,21.32
2023-08-17T19:03:14.502Z,21.47
2023-08-17T19:05:18.866Z,21.48
2023-08-17T19:07:23.689Z,21.33
2023-08-17T19:09:26.293Z,20.95
2023-08-17T19:11:29.835Z,21.04
2023-08-17T19:13:33.318Z,21.03
2023-08-17T19:15:36.786Z,20.83
2023-08-17T19:17:40.290Z,20.76
2023-08-17T19:19:43.745Z,20.58
2023-08-17T19:21:47.300Z,20.73
2023-08-17T19:23:52.497Z,20.64
2023-08-17T19:25:55.965Z,20.53
2023-08-17T19:27:59.405Z,20.57
2023-08-17T19:30:02.955Z,20.48
2023-08-17T19:32:06.569Z,20.53
2023-08-17T19:34:10.122Z,20.50
2023-08-17T19:36:13.489Z,20.35
2023-08-17T19:38:16.969Z,20.44
2023-08-17T19:40:21.265Z,20.34
2023-08-17T19:42:24.791Z,20.33
2023-08-17T19:44:28.472Z,20.30
2023-08-17T19:46:32.536Z,20.30
2023-08-17T19:48:36.121Z,20.22
2023-08-17T19:50:39.621Z,20.04
2023-08-17T19:52:43.008Z,20.10
2023-08-17T19:54:49.582Z,20.26
2023-08-17T19:56:54.632Z,20.37
2023-08-17T19:58:58.024Z,20.46
2023-08-17T20:01:06.276Z,20.65
2023-08-17T20:03:09.816Z,20.53
2023-08-17T20:05:13.833Z,20.34
2023-08-17T20:07:17.243Z,19.93
2023-08-17T20:09:20.709Z,20.02
2023-08-17T20:11:24.207Z,20.04
2023-08-17T20:13:29.054Z,19.95
2023-08-17T20:15:32.699Z,19.91
2023-08-17T20:17:36.163Z,20.11
2023-08-17T20:19:40.643Z,19.77
2023-08-17T20:21:44.827Z,19.75
2023-08-17T20:23:48.379Z,20.05
2023-08-17T20:25:54.316Z,20.17
2023-08-17T20:27:58.977Z,20.14
2023-08-17T20:30:04.596Z,20.03
2023-08-17T20:32:08.072Z,19.85
2023-08-17T20:34:12.547Z,20.39
2023-08-17T20:36:16.009Z,20.58
2023-08-17T20:38:19.602Z,20.51
2023-08-17T20:40:23.034Z,20.51
2023-08-17T20:42:26.490Z,20.62
2023-08-17T20:44:29.944Z,20.65
2023-08-17T20:46:35.052Z,20.46
2023-08-17T20:48:38.685Z,20.29
2023-08-17T20:50:42.814Z,20.24
2023-08-17T20:52:46.647Z,20.36
2023-08-17T20:56:55.963Z,19.74
2023-08-17T20:58:59.966Z,19.61
2023-08-17T21:01:04.482Z,19.49
2023-08-17T21:03:08.031Z,19.43
2023-08-17T21:05:11.622Z,19.63
2023-08-17T21:07:15.100Z,19.73
2023-08-17T21:09:21.942Z,19.49
2023-08-17T21:11:25.405Z,19.26
2023-08-17T21:13:29.260Z,19.42
2023-08-17T21:15:32.818Z,19.25
2023-08-17T21:17:36.317Z,19.01
2023-08-17T21:19:39.760Z,19.12
2023-08-17T21:21:43.213Z,19.14
2023-08-17T21:23:47.586Z,19.15
2023-08-17T21:25:51.887Z,18.98
2023-08-17T21:27:55.320Z,19.00
2023-08-17T21:30:00.122Z,19.05
2023-08-17T21:32:03.527Z,19.13
2023-08-17T21:34:06.894Z,19.12
2023-08-17T21:36:10.265Z,19.06
2023-08-17T21:38:13.709Z,19.02
2023-08-17T21:40:17.104Z,19.08
2023-08-17T21:42:21.677Z,18.93
2023-08-17T21:44:26.493Z,18.83
2023-08-17T21:46:31.310Z,18.83
2023-08-17T21:48:34.788Z,18.80
2023-08-17T21:50:39.028Z,18.76
2023-08-17T21:52:42.655Z,18.98
2023-08-17T21:54:45.163Z,19.29
2023-08-17T21:56:48.551Z,19.37
2023-08-17T21:58:51.973Z,19.25
2023-08-17T22:00:55.393Z,19.22
2023-08-17T22:03:00.311Z,19.02
2023-08-17T22:05:03.988Z,18.83
2023-08-17T22:07:07.457Z,19.11
2023-08-17T22:09:10.816Z,19.05
2023-08-17T22:11:14.237Z,19.11
2023-08-17T22:13:16.640Z,19.03
2023-08-17T22:15:20.057Z,18.93
2023-08-17T22:17:23.455Z,19.13
2023-08-17T22:19:28.580Z,19.06
2023-08-17T22:21:34.399Z,18.90
2023-08-17T22:23:37.813Z,19.05
2023-08-17T22:25:41.151Z,19.33
2023-08-17T22:27:44.526Z,19.25
2023-08-17T22:29:48.032Z,19.14
2023-08-17T22:31:51.487Z,19.11
2023-08-17T22:33:54.879Z,19.11
2023-08-17T22:35:59.698Z,18.99
2023-08-17T22:38:03.132Z,19.18
2023-08-17T22:40:08.276Z,19.09
2023-08-17T22:42:11.678Z,19.09
2023-08-17T22:44:15.065Z,18.73
2023-08-17T22:46:17.513Z,18.91
2023-08-17T22:48:21.126Z,19.05
2023-08-17T22:50:24.486Z,18.91
2023-08-17T22:52:28.339Z,19.10
2023-08-17T22:54:31.835Z,19.04
2023-08-17T22:56:35.278Z,19.09
2023-08-17T22:58:38.102Z,19.04
2023-08-17T23:00:42.246Z,19.03
2023-08-17T23:02:44.700Z,18.93
2023-08-17T23:04:48.167Z,18.91
2023-08-17T23:06:51.056Z,18.67
2023-08-17T23:08:55.879Z,18.99
2023-08-17T23:10:59.768Z,18.97
2023-08-17T23:13:03.159Z,19.00
2023-08-17T23:15:07.477Z,18.97
2023-08-17T23:17:10.870Z,19.02
2023-08-17T23:19:14.256Z,19.02
2023-08-17T23:21:17.818Z,18.97
2023-08-17T23:23:21.322Z,18.68
2023-08-17T23:25:27.366Z,18.76
2023-08-17T23:27:31.167Z,18.84
2023-08-17T23:29:34.887Z,18.73
2023-08-17T23:31:37.420Z,18.65
2023-08-17T23:33:40.895Z,18.64
2023-08-17T23:35:44.297Z,18.89
2023-08-17T23:37:47.764Z,19.21
2023-08-17T23:39:51.150Z,18.79
2023-08-17T23:41:55.996Z,18.68
2023-08-17T23:43:59.357Z,18.65
2023-08-17T23:46:02.803Z,18.68
2023-08-17T23:48:07.189Z,18.80
2023-08-17T23:50:11.591Z,18.57
2023-08-17T23:52:15.027Z,18.39
2023-08-17T23:54:18.407Z,18.30
2023-08-17T23:56:21.794Z,18.53
2023-08-17T23:58:27.002Z,18.48
